aviador You're here:

YPKU Decoded Metar

KUNUNURRA in AUSTRALIA
Report Time2018-06-18 18:30:00
UTC Time2018-06-18 19:10:57
Flight Rules vfr VFR
Wind160° at 07 kt
W.Decomp.*RWY 12: 5.6 kt HW 4.2 kt RCW
W.Rank160° ranks 7
Current wind is above 160° avg. (5.6)
Visibility9999 m
Phenomena:N/A
Clouds:N/A
Expected CloudBase > 6,800 ft AGL from Temp-Dew spread
CeilingNone
Temp19°C (ISA +4)
Dew Point02°C (32% RH)
AAT14.8°C
QNH1017 hPa
Density Alt617 ft
Elevation148 ft
Report Wrong Elevation
Raw Report
YPKU 181830Z AUTO 16007KT 9999 // NCD 19/02 Q1017 RF00.0/000.0=

Extra information for YPKU:More info

Metar Taf Metar & Taf Last 4 Metars F.Rules Stats Wind Profile Meteogram Temp Stats Airport Information Weather charts Add Link Nearby VenuesMetar ALERT Operation Metar Decoded Social comments